Aviation Digital Data Service (ADDS)

Output produced by METARs form (1337 UTC 19 February 2020)
found at http://aviationweather.gov/metar/data/
 
METAR text: KRNT 191253Z AUTO 00000KT 10SM CLR M01/M03 A3034 RMK AO2 SLP279 T10111033
Conditions at: KRNT (RENTON , WA, US) observed 1253 UTC 19 February 2020
Temperature: -1.1°C (30°F)
Dewpoint: -3.3°C (26°F) [RH = 85%]
Pressure (altimeter): 30.34 inches Hg (1027.5 mb)
[Sea-level pressure: 1027.9 mb]
Winds: calm
Visibility: 10 or more miles (16+ km)
Ceiling: at least 12,000 feet AGL
Clouds: sky clear below 12,000 feet AGL
Weather: automated observation with no human augmentation;
there may or may not be significant weather present at this time

METAR text: KRNT 191153Z AUTO 00000KT 10SM CLR M02/M03 A3035 RMK AO2 SLP281 T10171033 10039 21017 58004
Conditions at: KRNT (RENTON , WA, US) observed 1153 UTC 19 February 2020
Temperature: -1.7°C (29°F)
Dewpoint: -3.3°C (26°F) [RH = 89%]
Pressure (altimeter): 30.35 inches Hg (1027.9 mb)
[Sea-level pressure: 1028.1 mb]
Winds: calm
Visibility: 10 or more miles (16+ km)
Ceiling: at least 12,000 feet AGL
Clouds: sky clear below 12,000 feet AGL
Weather: automated observation with no human augmentation;
there may or may not be significant weather present at this time